sensor_id;sensor_type;location;lat;lon;timestamp;pressure;altitude;pressure_sealevel;temperature;humidity
62710;BME280;48770;51.624;5.886;2024-03-08T00:00:51;101688.22;;;17.02;32.53
62710;BME280;48770;51.624;5.886;2024-03-08T00:03:17;101686.56;;;17.01;32.59
62710;BME280;48770;51.624;5.886;2024-03-08T00:05:42;101678.59;;;16.99;32.61
62710;BME280;48770;51.624;5.886;2024-03-08T00:08:07;101675.81;;;16.99;32.54
62710;BME280;48770;51.624;5.886;2024-03-08T00:10:35;101676.97;;;16.98;32.33
62710;BME280;48770;51.624;5.886;2024-03-08T00:13:00;101675.31;;;16.97;32.67
62710;BME280;48770;51.624;5.886;2024-03-08T00:15:26;101678.09;;;16.97;32.55
62710;BME280;48770;51.624;5.886;2024-03-08T00:17:54;101676.75;;;16.94;32.94
62710;BME280;48770;51.624;5.886;2024-03-08T00:20:20;101670.41;;;16.94;32.39
62710;BME280;48770;51.624;5.886;2024-03-08T00:22:45;101675.94;;;16.94;32.53
62710;BME280;48770;51.624;5.886;2024-03-08T00:25:11;101666.81;;;16.93;32.56
62710;BME280;48770;51.624;5.886;2024-03-08T00:27:40;101667.94;;;16.92;32.36
62710;BME280;48770;51.624;5.886;2024-03-08T00:30:06;101661.88;;;16.90;32.18
62710;BME280;48770;51.624;5.886;2024-03-08T00:32:32;101665.78;;;16.89;32.10
62710;BME280;48770;51.624;5.886;2024-03-08T00:34:58;101666.91;;;16.88;32.30
62710;BME280;48770;51.624;5.886;2024-03-08T00:37:23;101664.13;;;16.88;32.33
62710;BME280;48770;51.624;5.886;2024-03-08T00:39:49;101656.97;;;16.87;32.44
62710;BME280;48770;51.624;5.886;2024-03-08T00:42:18;101653.69;;;16.85;32.23
62710;BME280;48770;51.624;5.886;2024-03-08T00:44:44;101646.53;;;16.84;32.02
62710;BME280;48770;51.624;5.886;2024-03-08T00:47:09;101649.31;;;16.84;32.14
62710;BME280;48770;51.624;5.886;2024-03-08T00:49:35;101644.09;;;16.83;32.16
62710;BME280;48770;51.624;5.886;2024-03-08T00:52:02;101647.66;;;16.83;32.13
62710;BME280;48770;51.624;5.886;2024-03-08T00:54:27;101644.09;;;16.83;32.06
62710;BME280;48770;51.624;5.886;2024-03-08T00:56:52;101632.53;;;16.81;32.21
62710;BME280;48770;51.624;5.886;2024-03-08T00:59:18;101624.25;;;16.81;32.25
62710;BME280;48770;51.624;5.886;2024-03-08T01:01:43;101630.91;;;16.80;32.28
62710;BME280;48770;51.624;5.886;2024-03-08T01:04:09;101626.19;;;16.80;32.11
62710;BME280;48770;51.624;5.886;2024-03-08T01:06:35;101621.78;;;16.79;31.98
62710;BME280;48770;51.624;5.886;2024-03-08T01:09:01;101622.91;;;16.78;31.80
62710;BME280;48770;51.624;5.886;2024-03-08T01:11:26;101615.75;;;16.77;32.14
62710;BME280;48770;51.624;5.886;2024-03-08T01:13:53;101607.78;;;16.76;31.92
62710;BME280;48770;51.624;5.886;2024-03-08T01:16:18;101604.19;;;16.75;32.13
62710;BME280;48770;51.624;5.886;2024-03-08T01:18:45;101601.44;;;16.75;32.04
62710;BME280;48770;51.624;5.886;2024-03-08T01:21:11;101609.72;;;16.75;32.06
62710;BME280;48770;51.624;5.886;2024-03-08T01:23:37;101592.63;;;16.73;31.91
62710;BME280;48770;51.624;5.886;2024-03-08T01:26:02;101589.38;;;16.71;31.60
62710;BME280;48770;51.624;5.886;2024-03-08T01:28:28;101591.31;;;16.71;32.12
62710;BME280;48770;51.624;5.886;2024-03-08T01:30:53;101586.91;;;16.70;31.68
62710;BME280;48770;51.624;5.886;2024-03-08T01:33:25;101594.88;;;16.71;31.96
62710;BME280;48770;51.624;5.886;2024-03-08T01:35:52;101599.59;;;16.71;31.56
62710;BME280;48770;51.624;5.886;2024-03-08T01:38:18;101583.66;;;16.68;31.79
62710;BME280;48770;51.624;5.886;2024-03-08T01:40:43;101585.59;;;16.67;31.92
62710;BME280;48770;51.624;5.886;2024-03-08T01:43:25;101586.72;;;16.66;31.87
62710;BME280;48770;51.624;5.886;2024-03-08T01:45:52;101582.81;;;16.67;31.94
62710;BME280;48770;51.624;5.886;2024-03-08T01:48:18;101586.13;;;16.64;31.79
62710;BME280;48770;51.624;5.886;2024-03-08T01:50:45;101577.03;;;16.63;31.68
62710;BME280;48770;51.624;5.886;2024-03-08T01:53:11;101577.34;;;16.62;31.60
62710;BME280;48770;51.624;5.886;2024-03-08T01:55:40;101581.22;;;16.61;31.55
62710;BME280;48770;51.624;5.886;2024-03-08T01:58:09;101582.34;;;16.60;31.53
62710;BME280;48770;51.624;5.886;2024-03-08T02:00:35;101573.25;;;16.59;31.89
62710;BME280;48770;51.624;5.886;2024-03-08T02:03:02;101573.56;;;16.58;31.84
62710;BME280;48770;51.624;5.886;2024-03-08T02:05:27;101572.75;;;16.57;31.84
62710;BME280;48770;51.624;5.886;2024-03-08T02:07:53;101565.59;;;16.56;31.89
62710;BME280;48770;51.624;5.886;2024-03-08T02:10:19;101564.78;;;16.56;31.58
62710;BME280;48770;51.624;5.886;2024-03-08T02:12:46;101565.91;;;16.55;31.61
62710;BME280;48770;51.624;5.886;2024-03-08T02:15:11;101555.16;;;16.53;31.74
62710;BME280;48770;51.624;5.886;2024-03-08T02:17:37;101555.97;;;16.54;31.63
62710;BME280;48770;51.624;5.886;2024-03-08T02:20:02;101547.19;;;16.52;31.43
62710;BME280;48770;51.624;5.886;2024-03-08T02:22:30;101545.56;;;16.51;31.85
62710;BME280;48770;51.624;5.886;2024-03-08T02:24:58;101538.41;;;16.50;31.60
62710;BME280;48770;51.624;5.886;2024-03-08T02:27:24;101543.91;;;16.50;31.29
62710;BME280;48770;51.624;5.886;2024-03-08T02:29:53;101537.88;;;16.48;31.59
62710;BME280;48770;51.624;5.886;2024-03-08T02:32:21;101545.03;;;16.49;31.28
62710;BME280;48770;51.624;5.886;2024-03-08T02:34:46;101538.19;;;16.46;31.18
62710;BME280;48770;51.624;5.886;2024-03-08T02:37:11;101530.22;;;16.45;31.32
62710;BME280;48770;51.624;5.886;2024-03-08T02:39:37;101531.66;;;16.42;31.39
62710;BME280;48770;51.624;5.886;2024-03-08T02:42:03;101526.94;;;16.43;31.33
62710;BME280;48770;51.624;5.886;2024-03-08T02:44:28;101534.72;;;16.41;31.39
62710;BME280;48770;51.624;5.886;2024-03-08T02:46:54;101527.56;;;16.40;31.43
62710;BME280;48770;51.624;5.886;2024-03-08T02:49:20;101525.91;;;16.39;31.28
62710;BME280;48770;51.624;5.886;2024-03-08T02:51:46;101515.16;;;16.37;31.47
62710;BME280;48770;51.624;5.886;2024-03-08T02:54:11;101517.09;;;16.37;31.41
62710;BME280;48770;51.624;5.886;2024-03-08T02:56:37;101514.66;;;16.35;31.28
62710;BME280;48770;51.624;5.886;2024-03-08T02:59:02;101517.72;;;16.33;31.33
62710;BME280;48770;51.624;5.886;2024-03-08T03:01:28;101510.25;;;16.34;31.51
62710;BME280;48770;51.624;5.886;2024-03-08T03:03:53;101507.81;;;16.32;31.50
62710;BME280;48770;51.624;5.886;2024-03-08T03:06:18;101505.34;;;16.31;31.37
62710;BME280;48770;51.624;5.886;2024-03-08T03:08:46;101498.19;;;16.30;31.20
62710;BME280;48770;51.624;5.886;2024-03-08T03:11:12;101506.47;;;16.30;31.24
62710;BME280;48770;51.624;5.886;2024-03-08T03:13:39;101502.91;;;16.29;31.07
62710;BME280;48770;51.624;5.886;2024-03-08T03:16:04;101493.00;;;16.28;31.31
62710;BME280;48770;51.624;5.886;2024-03-08T03:18:30;101486.97;;;16.26;31.32
62710;BME280;48770;51.624;5.886;2024-03-08T03:20:58;101484.50;;;16.25;31.05
62710;BME280;48770;51.624;5.886;2024-03-08T03:23:23;101484.50;;;16.25;31.43
62710;BME280;48770;51.624;5.886;2024-03-08T03:25:48;101496.34;;;16.25;31.43
62710;BME280;48770;51.624;5.886;2024-03-08T03:28:14;101491.97;;;16.24;31.28
62710;BME280;48770;51.624;5.886;2024-03-08T03:30:45;101491.47;;;16.22;31.42
62710;BME280;48770;51.624;5.886;2024-03-08T03:33:11;101492.28;;;16.23;31.35
62710;BME280;48770;51.624;5.886;2024-03-08T03:35:37;101488.19;;;16.20;31.38
62710;BME280;48770;51.624;5.886;2024-03-08T03:38:03;101488.50;;;16.19;31.01
62710;BME280;48770;51.624;5.886;2024-03-08T03:40:35;101489.63;;;16.18;31.05
62710;BME280;48770;51.624;5.886;2024-03-08T03:43:01;101477.75;;;16.17;31.02
62710;BME280;48770;51.624;5.886;2024-03-08T03:45:28;101478.06;;;16.16;30.96
62710;BME280;48770;51.624;5.886;2024-03-08T03:47:53;101481.94;;;16.15;31.19
62710;BME280;48770;51.624;5.886;2024-03-08T03:50:19;101479.19;;;16.15;30.97
62710;BME280;48770;51.624;5.886;2024-03-08T03:52:48;101472.03;;;16.14;30.98
62710;BME280;48770;51.624;5.886;2024-03-08T03:55:14;101466.81;;;16.12;31.14
62710;BME280;48770;51.624;5.886;2024-03-08T03:57:40;101471.81;;;16.10;31.11
62710;BME280;48770;51.624;5.886;2024-03-08T04:00:06;101469.88;;;16.11;31.17
62710;BME280;48770;51.624;5.886;2024-03-08T04:02:38;101470.16;;;16.09;31.09
62710;BME280;48770;51.624;5.886;2024-03-08T04:05:07;101471.00;;;16.10;31.01
62710;BME280;48770;51.624;5.886;2024-03-08T04:07:33;101465.78;;;16.08;30.78
62710;BME280;48770;51.624;5.886;2024-03-08T04:10:00;101458.63;;;16.07;30.94
62710;BME280;48770;51.624;5.886;2024-03-08T04:12:26;101458.13;;;16.05;31.16
62710;BME280;48770;51.624;5.886;2024-03-08T04:14:51;101463.63;;;16.05;31.09
62710;BME280;48770;51.624;5.886;2024-03-08T04:17:16;101456.47;;;16.04;30.74
62710;BME280;48770;51.624;5.886;2024-03-08T04:19:43;101455.16;;;16.01;30.88
62710;BME280;48770;51.624;5.886;2024-03-08T04:22:08;101453.22;;;16.02;31.23
62710;BME280;48770;51.624;5.886;2024-03-08T04:24:34;101451.56;;;16.01;30.91
62710;BME280;48770;51.624;5.886;2024-03-08T04:26:59;101444.44;;;16.00;31.09
62710;BME280;48770;51.624;5.886;2024-03-08T04:29:25;101444.44;;;16.00;31.04
62710;BME280;48770;51.624;5.886;2024-03-08T04:31:50;101443.09;;;15.97;30.67
62710;BME280;48770;51.624;5.886;2024-03-08T04:34:22;101447.78;;;15.97;30.82
62710;BME280;48770;51.624;5.886;2024-03-08T04:36:48;101438.69;;;15.96;30.89
62710;BME280;48770;51.624;5.886;2024-03-08T04:39:13;101442.59;;;15.95;31.19
62710;BME280;48770;51.624;5.886;2024-03-08T04:41:40;101438.19;;;15.94;30.77
62710;BME280;48770;51.624;5.886;2024-03-08T04:44:07;101446.47;;;15.94;30.91
62710;BME280;48770;51.624;5.886;2024-03-08T04:46:33;101447.59;;;15.93;30.79
62710;BME280;48770;51.624;5.886;2024-03-08T04:49:00;101447.91;;;15.92;31.02
62710;BME280;48770;51.624;5.886;2024-03-08T04:51:26;101436.88;;;15.92;31.05
62710;BME280;48770;51.624;5.886;2024-03-08T04:53:51;101435.22;;;15.91;31.16
62710;BME280;48770;51.624;5.886;2024-03-08T04:56:16;101432.47;;;15.91;30.92
62710;BME280;48770;51.624;5.886;2024-03-08T04:58:44;101434.41;;;15.90;31.11
62710;BME280;48770;51.624;5.886;2024-03-08T05:01:12;101428.91;;;15.90;31.05
62710;BME280;48770;51.624;5.886;2024-03-08T05:03:37;101423.69;;;15.89;30.71
62710;BME280;48770;51.624;5.886;2024-03-08T05:06:03;101422.88;;;15.88;30.69
62710;BME280;48770;51.624;5.886;2024-03-08T05:08:29;101416.53;;;15.88;30.86
62710;BME280;48770;51.624;5.886;2024-03-08T05:10:54;101416.81;;;15.86;31.06
62710;BME280;48770;51.624;5.886;2024-03-08T05:13:20;101418.75;;;15.86;30.69
62710;BME280;48770;51.624;5.886;2024-03-08T05:15:48;101417.94;;;15.85;30.65
62710;BME280;48770;51.624;5.886;2024-03-08T05:18:15;101417.44;;;15.83;30.95
62710;BME280;48770;51.624;5.886;2024-03-08T05:20:40;101413.84;;;15.83;30.82
62710;BME280;48770;51.624;5.886;2024-03-08T05:23:06;101404.75;;;15.82;30.77
62710;BME280;48770;51.624;5.886;2024-03-08T05:25:32;101407.81;;;15.81;30.79
62710;BME280;48770;51.624;5.886;2024-03-08T05:27:57;101415.28;;;15.80;30.99
62710;BME280;48770;51.624;5.886;2024-03-08T05:30:23;101408.94;;;15.80;30.97
62710;BME280;48770;51.624;5.886;2024-03-08T05:32:48;101406.50;;;15.78;30.69
62710;BME280;48770;51.624;5.886;2024-03-08T05:35:13;101407.09;;;15.75;30.92
62710;BME280;48770;51.624;5.886;2024-03-08T05:37:41;101405.16;;;15.76;30.60
62710;BME280;48770;51.624;5.886;2024-03-08T05:40:07;101407.94;;;15.76;30.90
62710;BME280;48770;51.624;5.886;2024-03-08T05:42:37;101399.97;;;15.74;30.85
62710;BME280;48770;51.624;5.886;2024-03-08T05:45:04;101411.00;;;15.74;31.02
62710;BME280;48770;51.624;5.886;2024-03-08T05:47:31;101404.16;;;15.71;30.68
62710;BME280;48770;51.624;5.886;2024-03-08T05:49:57;101399.75;;;15.70;30.76
62710;BME280;48770;51.624;5.886;2024-03-08T05:52:23;101400.56;;;15.71;30.57
62710;BME280;48770;51.624;5.886;2024-03-08T05:54:48;101393.41;;;15.70;30.97
62710;BME280;48770;51.624;5.886;2024-03-08T05:57:13;101389.53;;;15.71;30.86
62710;BME280;48770;51.624;5.886;2024-03-08T05:59:39;101392.31;;;15.71;30.96
62710;BME280;48770;51.624;5.886;2024-03-08T06:02:05;101389.03;;;15.69;30.96
62710;BME280;48770;51.624;5.886;2024-03-08T06:04:30;101392.09;;;15.67;30.70
62710;BME280;48770;51.624;5.886;2024-03-08T06:06:56;101385.47;;;15.68;30.65
62710;BME280;48770;51.624;5.886;2024-03-08T06:09:24;101390.47;;;15.66;31.08
62710;BME280;48770;51.624;5.886;2024-03-08T06:11:50;101386.88;;;15.66;30.92
62710;BME280;48770;51.624;5.886;2024-03-08T06:14:15;101388.81;;;15.65;30.76
62710;BME280;48770;51.624;5.886;2024-03-08T06:16:47;101382.50;;;15.65;30.69
62710;BME280;48770;51.624;5.886;2024-03-08T06:19:15;101383.91;;;15.62;30.83
62710;BME280;48770;51.624;5.886;2024-03-08T06:21:40;101382.81;;;15.63;30.81
62710;BME280;48770;51.624;5.886;2024-03-08T06:24:06;101385.88;;;15.62;30.92
62710;BME280;48770;51.624;5.886;2024-03-08T06:26:31;101378.41;;;15.62;30.88
62710;BME280;48770;51.624;5.886;2024-03-08T06:28:57;101380.34;;;15.62;31.06
62710;BME280;48770;51.624;5.886;2024-03-08T06:31:23;101381.44;;;15.61;30.92
62710;BME280;48770;51.624;5.886;2024-03-08T06:33:48;101375.09;;;15.60;31.03
62710;BME280;48770;51.624;5.886;2024-03-08T06:36:19;101370.72;;;15.59;30.90
62710;BME280;48770;51.624;5.886;2024-03-08T06:38:47;101376.22;;;15.59;30.62
62710;BME280;48770;51.624;5.886;2024-03-08T06:41:12;101369.09;;;15.58;30.83
62710;BME280;48770;51.624;5.886;2024-03-08T06:43:40;101372.34;;;15.60;31.11
62710;BME280;48770;51.624;5.886;2024-03-08T06:46:06;101368.78;;;15.60;30.85
62710;BME280;48770;51.624;5.886;2024-03-08T06:48:32;101361.63;;;15.59;30.80
62710;BME280;48770;51.624;5.886;2024-03-08T06:50:57;101364.91;;;15.61;30.82
62710;BME280;48770;51.624;5.886;2024-03-08T06:53:22;101369.09;;;15.58;31.26
62710;BME280;48770;51.624;5.886;2024-03-08T06:55:47;101358.88;;;15.59;31.26
62710;BME280;48770;51.624;5.886;2024-03-08T06:58:13;101359.97;;;15.58;31.12
62710;BME280;48770;51.624;5.886;2024-03-08T07:00:38;101356.13;;;15.59;30.98
62710;BME280;48770;51.624;5.886;2024-03-08T07:03:07;101364.09;;;15.60;31.14
62710;BME280;48770;51.624;5.886;2024-03-08T07:05:33;101356.94;;;15.59;31.28
62710;BME280;48770;51.624;5.886;2024-03-08T07:07:58;101358.88;;;15.59;31.05
62710;BME280;48770;51.624;5.886;2024-03-08T07:10:24;101355.00;;;15.60;30.79
62710;BME280;48770;51.624;5.886;2024-03-08T07:12:53;101352.56;;;15.58;31.32
62710;BME280;48770;51.624;5.886;2024-03-08T07:15:19;101352.56;;;15.58;31.12
62710;BME280;48770;51.624;5.886;2024-03-08T07:17:47;101365.22;;;15.59;31.35
62710;BME280;48770;51.624;5.886;2024-03-08T07:20:14;101361.63;;;15.59;31.06
62710;BME280;48770;51.624;5.886;2024-03-08T07:22:40;101356.13;;;15.59;31.36
62710;BME280;48770;51.624;5.886;2024-03-08T07:25:06;101347.03;;;15.58;31.14
62710;BME280;48770;51.624;5.886;2024-03-08T07:27:56;101346.19;;;15.58;31.49
62710;BME280;48770;51.624;5.886;2024-03-08T07:30:23;101348.94;;;15.58;31.58
62710;BME280;48770;51.624;5.886;2024-03-08T07:33:07;101349.47;;;15.60;31.07
62710;BME280;48770;51.624;5.886;2024-03-08T07:35:37;101349.78;;;15.58;31.50
62710;BME280;48770;51.624;5.886;2024-03-08T07:38:05;101347.84;;;15.59;31.23
62710;BME280;48770;51.624;5.886;2024-03-08T07:40:38;101343.97;;;15.60;31.32
62710;BME280;48770;51.624;5.886;2024-03-08T07:43:08;101340.41;;;15.59;31.32
62710;BME280;48770;51.624;5.886;2024-03-08T07:45:35;101336.53;;;15.60;31.45
62710;BME280;48770;51.624;5.886;2024-03-08T07:48:01;101347.53;;;15.60;31.86
62710;BME280;48770;51.624;5.886;2024-03-08T07:50:28;101332.94;;;15.60;31.54
62710;BME280;48770;51.624;5.886;2024-03-08T07:52:54;101326.31;;;15.61;31.66
62710;BME280;48770;51.624;5.886;2024-03-08T07:55:19;101329.06;;;15.61;31.63
62710;BME280;48770;51.624;5.886;2024-03-08T07:57:45;101320.53;;;15.62;31.48
62710;BME280;48770;51.624;5.886;2024-03-08T08:00:12;101321.34;;;15.63;31.62
62710;BME280;48770;51.624;5.886;2024-03-08T08:02:43;101316.66;;;15.63;31.80
62710;BME280;48770;51.624;5.886;2024-03-08T08:05:08;101325.22;;;15.62;31.92
62710;BME280;48770;51.624;5.886;2024-03-08T08:07:35;101312.25;;;15.62;31.88
62710;BME280;48770;51.624;5.886;2024-03-08T08:10:01;101310.31;;;15.63;31.93
62710;BME280;48770;51.624;5.886;2024-03-08T08:12:26;101306.44;;;15.64;31.60
62710;BME280;48770;51.624;5.886;2024-03-08T08:14:54;101304.00;;;15.62;32.00
62710;BME280;48770;51.624;5.886;2024-03-08T08:17:19;101300.09;;;15.63;32.01
62710;BME280;48770;51.624;5.886;2024-03-08T08:19:45;101300.91;;;15.64;32.35
62710;BME280;48770;51.624;5.886;2024-03-08T08:22:11;101294.59;;;15.63;31.95
62710;BME280;48770;51.624;5.886;2024-03-08T08:24:36;101289.91;;;15.64;32.31
62710;BME280;48770;51.624;5.886;2024-03-08T08:27:02;101295.91;;;15.66;32.39
62710;BME280;48770;51.624;5.886;2024-03-08T08:29:27;101291.03;;;15.63;33.32
62710;BME280;48770;51.624;5.886;2024-03-08T08:31:53;101287.66;;;15.66;33.25
62710;BME280;48770;51.624;5.886;2024-03-08T08:34:19;101280.50;;;15.65;33.23
62710;BME280;48770;51.624;5.886;2024-03-08T08:36:45;101275.50;;;15.67;33.09
62710;BME280;48770;51.624;5.886;2024-03-08T08:39:10;101279.88;;;15.68;33.13
62710;BME280;48770;51.624;5.886;2024-03-08T08:41:39;101275.69;;;15.70;32.86
62710;BME280;48770;51.624;5.886;2024-03-08T08:44:04;101274.88;;;15.70;32.91
62710;BME280;48770;51.624;5.886;2024-03-08T08:46:29;101274.88;;;15.70;33.25
62710;BME280;48770;51.624;5.886;2024-03-08T08:48:54;101272.94;;;15.70;32.90
62710;BME280;48770;51.624;5.886;2024-03-08T08:51:20;101259.66;;;15.72;33.00
62710;BME280;48770;51.624;5.886;2024-03-08T08:53:46;101258.84;;;15.72;32.90
62710;BME280;48770;51.624;5.886;2024-03-08T08:56:13;101261.59;;;15.72;32.88
62710;BME280;48770;51.624;5.886;2024-03-08T08:58:39;101254.16;;;15.72;32.97
62710;BME280;48770;51.624;5.886;2024-03-08T09:01:07;101253.34;;;15.72;33.08
62710;BME280;48770;51.624;5.886;2024-03-08T09:03:33;101245.88;;;15.72;32.94
62710;BME280;48770;51.624;5.886;2024-03-08T09:06:00;101247.81;;;15.72;32.97
62710;BME280;48770;51.624;5.886;2024-03-08T09:08:25;101251.41;;;15.72;32.96
62710;BME280;48770;51.624;5.886;2024-03-08T09:10:51;101245.56;;;15.74;32.94
62710;BME280;48770;51.624;5.886;2024-03-08T09:13:16;101245.56;;;15.74;32.91
62710;BME280;48770;51.624;5.886;2024-03-08T09:15:42;101238.44;;;15.73;33.31
62710;BME280;48770;51.624;5.886;2024-03-08T09:18:07;101237.00;;;15.76;33.35
62710;BME280;48770;51.624;5.886;2024-03-08T09:20:34;101239.75;;;15.76;33.08
62710;BME280;48770;51.624;5.886;2024-03-08T09:22:59;101234.22;;;15.76;33.26
62710;BME280;48770;51.624;5.886;2024-03-08T09:25:25;101225.34;;;15.79;33.11
62710;BME280;48770;51.624;5.886;2024-03-08T09:27:51;101225.34;;;15.79;33.31
62710;BME280;48770;51.624;5.886;2024-03-08T09:30:16;101216.25;;;15.78;32.99
62710;BME280;48770;51.624;5.886;2024-03-08T09:32:43;101208.81;;;15.79;33.17
62710;BME280;48770;51.624;5.886;2024-03-08T09:35:09;101210.75;;;15.78;33.36
62710;BME280;48770;51.624;5.886;2024-03-08T09:37:34;101206.66;;;15.76;33.41
62710;BME280;48770;51.624;5.886;2024-03-08T09:40:00;101205.03;;;15.75;33.71
62710;BME280;48770;51.624;5.886;2024-03-08T09:42:29;101194.63;;;15.71;33.35
62710;BME280;48770;51.624;5.886;2024-03-08T09:44:55;101199.84;;;15.73;33.34
62710;BME280;48770;51.624;5.886;2024-03-08T09:47:21;101186.34;;;15.71;33.73
62710;BME280;48770;51.624;5.886;2024-03-08T09:49:50;101184.91;;;15.74;33.70
62710;BME280;48770;51.624;5.886;2024-03-08T09:52:15;101184.31;;;15.77;33.59
62710;BME280;48770;51.624;5.886;2024-03-08T09:54:41;101180.22;;;15.75;33.49
62710;BME280;48770;51.624;5.886;2024-03-08T09:57:10;101171.13;;;15.74;33.40
62710;BME280;48770;51.624;5.886;2024-03-08T09:59:35;101153.78;;;15.73;33.77
62710;BME280;48770;51.624;5.886;2024-03-08T10:02:01;101152.97;;;15.73;33.68
62710;BME280;48770;51.624;5.886;2024-03-08T10:04:28;101146.63;;;15.72;33.50
62710;BME280;48770;51.624;5.886;2024-03-08T10:06:57;101145.31;;;15.70;33.43
62710;BME280;48770;51.624;5.886;2024-03-08T10:09:24;101135.09;;;15.70;33.59
62710;BME280;48770;51.624;5.886;2024-03-08T10:11:55;101130.91;;;15.73;33.79
62710;BME280;48770;51.624;5.886;2024-03-08T10:14:21;101122.34;;;15.75;33.63
62710;BME280;48770;51.624;5.886;2024-03-08T10:16:46;101117.94;;;15.73;33.82
62710;BME280;48770;51.624;5.886;2024-03-08T10:19:12;101124.59;;;15.72;33.75
62710;BME280;48770;51.624;5.886;2024-03-08T10:21:50;101117.94;;;15.73;34.03
62710;BME280;48770;51.624;5.886;2024-03-08T10:24:18;101117.31;;;15.77;33.99
62710;BME280;48770;51.624;5.886;2024-03-08T10:26:43;101108.72;;;15.78;33.94
62710;BME280;48770;51.624;5.886;2024-03-08T10:29:09;101102.09;;;15.79;33.66
62710;BME280;48770;51.624;5.886;2024-03-08T10:31:35;101100.66;;;15.82;33.71
62710;BME280;48770;51.624;5.886;2024-03-08T10:34:01;101099.53;;;15.83;33.98
62710;BME280;48770;51.624;5.886;2024-03-08T10:36:28;101088.50;;;15.83;33.91
62710;BME280;48770;51.624;5.886;2024-03-08T10:38:53;101080.22;;;15.83;33.71
62710;BME280;48770;51.624;5.886;2024-03-08T10:41:24;101089.00;;;15.85;34.04
62710;BME280;48770;51.624;5.886;2024-03-08T10:47:05;101071.84;;;15.88;34.00
62710;BME280;48770;51.624;5.886;2024-03-08T10:50:04;101079.00;;;15.89;33.95
62710;BME280;48770;51.624;5.886;2024-03-08T10:52:35;101079.00;;;15.89;34.06
62710;BME280;48770;51.624;5.886;2024-03-08T10:55:02;101071.22;;;15.91;34.13
62710;BME280;48770;51.624;5.886;2024-03-08T10:57:28;101064.56;;;15.92;34.08
62710;BME280;48770;51.624;5.886;2024-03-08T10:59:54;101063.75;;;15.91;34.09
62710;BME280;48770;51.624;5.886;2024-03-08T11:02:20;101059.56;;;15.94;34.18
62710;BME280;48770;51.624;5.886;2024-03-08T11:04:47;101048.72;;;15.97;34.16
62710;BME280;48770;51.624;5.886;2024-03-08T11:07:14;101049.84;;;15.96;34.19
62710;BME280;48770;51.624;5.886;2024-03-08T11:09:42;101060.25;;;15.99;34.29
62710;BME280;48770;51.624;5.886;2024-03-08T11:15:03;101039.19;;;16.03;34.27
62710;BME280;48770;51.624;5.886;2024-03-08T11:20:12;101028.31;;;16.07;34.37
62710;BME280;48770;51.624;5.886;2024-03-08T11:22:41;101029.31;;;16.11;34.31
62710;BME280;48770;51.624;5.886;2024-03-08T11:25:30;101016.03;;;16.13;33.91
62710;BME280;48770;51.624;5.886;2024-03-08T11:30:43;101012.84;;;16.20;33.91
62710;BME280;48770;51.624;5.886;2024-03-08T11:33:12;101014.16;;;16.22;33.78
62710;BME280;48770;51.624;5.886;2024-03-08T11:35:39;101006.69;;;16.23;34.19
62710;BME280;48770;51.624;5.886;2024-03-08T11:38:08;100999.41;;;16.27;34.03
62710;BME280;48770;51.624;5.886;2024-03-08T11:40:34;101003.47;;;16.29;34.34
62710;BME280;48770;51.624;5.886;2024-03-08T11:43:00;100997.31;;;16.32;33.90
62710;BME280;48770;51.624;5.886;2024-03-08T11:45:28;100998.63;;;16.35;34.24
62710;BME280;48770;51.624;5.886;2024-03-08T11:47:54;100999.09;;;16.37;33.91
62710;BME280;48770;51.624;5.886;2024-03-08T11:50:19;100997.47;;;16.36;34.08
62710;BME280;48770;51.624;5.886;2024-03-08T11:52:49;100989.69;;;16.38;34.29
62710;BME280;48770;51.624;5.886;2024-03-08T11:55:14;100988.75;;;16.43;33.99
62710;BME280;48770;51.624;5.886;2024-03-08T11:57:39;100977.09;;;16.46;34.18
62710;BME280;48770;51.624;5.886;2024-03-08T12:00:15;100978.41;;;16.48;34.26
62710;BME280;48770;51.624;5.886;2024-03-08T12:02:46;100975.00;;;16.51;34.08
62710;BME280;48770;51.624;5.886;2024-03-08T12:05:15;100968.66;;;16.51;33.89
62710;BME280;48770;51.624;5.886;2024-03-08T12:07:41;100970.78;;;16.54;34.10
62710;BME280;48770;51.624;5.886;2024-03-08T12:10:17;100967.38;;;16.57;34.09
62710;BME280;48770;51.624;5.886;2024-03-08T12:12:48;100954.88;;;16.59;34.04
62710;BME280;48770;51.624;5.886;2024-03-08T12:15:15;100953.75;;;16.60;33.97
62710;BME280;48770;51.624;5.886;2024-03-08T12:17:43;100956.81;;;16.59;34.07
62710;BME280;48770;51.624;5.886;2024-03-08T12:20:15;100940.75;;;16.61;33.96
62710;BME280;48770;51.624;5.886;2024-03-08T12:22:42;100945.63;;;16.64;34.19
62710;BME280;48770;51.624;5.886;2024-03-08T12:25:08;100935.41;;;16.64;34.42
62710;BME280;48770;51.624;5.886;2024-03-08T12:27:36;100938.97;;;16.65;34.21
62710;BME280;48770;51.624;5.886;2024-03-08T12:30:25;100926.84;;;16.75;34.16
62710;BME280;48770;51.624;5.886;2024-03-08T12:32:59;100918.41;;;16.80;33.84
62710;BME280;48770;51.624;5.886;2024-03-08T12:35:26;100918.25;;;16.85;33.95
62710;BME280;48770;51.624;5.886;2024-03-08T12:37:53;100911.59;;;16.86;34.02
62710;BME280;48770;51.624;5.886;2024-03-08T12:40:33;100905.41;;;16.89;34.12
62710;BME280;48770;51.624;5.886;2024-03-08T12:43:05;100907.56;;;16.92;34.04
62710;BME280;48770;51.624;5.886;2024-03-08T12:45:31;100906.91;;;16.95;34.44
62710;BME280;48770;51.624;5.886;2024-03-08T12:47:57;100901.06;;;16.97;34.23
62710;BME280;48770;51.624;5.886;2024-03-08T12:50:25;100898.78;;;16.99;34.14
62710;BME280;48770;51.624;5.886;2024-03-08T12:52:50;100889.34;;;17.00;34.17
62710;BME280;48770;51.624;5.886;2024-03-08T12:55:17;100888.38;;;17.04;34.12
62710;BME280;48770;51.624;5.886;2024-03-08T12:57:43;100883.81;;;17.08;34.12
62710;BME280;48770;51.624;5.886;2024-03-08T13:00:10;100868.88;;;17.09;34.19